createdAt,value
2023-03-06T00:02:34.544Z,2.32
2023-03-06T00:05:36.162Z,2.33
2023-03-06T00:08:37.658Z,2.33
2023-03-06T00:11:39.120Z,2.35
2023-03-06T00:14:40.601Z,2.33
2023-03-06T00:17:42.127Z,2.37
2023-03-06T00:20:44.672Z,2.38
2023-03-06T00:23:46.227Z,2.37
2023-03-06T00:26:47.713Z,2.33
2023-03-06T00:29:49.914Z,2.23
2023-03-06T00:32:53.310Z,2.22
2023-03-06T00:35:55.074Z,2.21
2023-03-06T00:38:56.574Z,2.15
2023-03-06T00:41:59.842Z,1.97
2023-03-06T00:45:01.325Z,2.00
2023-03-06T00:48:02.953Z,1.95
2023-03-06T00:51:04.937Z,2.02
2023-03-06T00:54:06.389Z,2.09
2023-03-06T00:57:08.678Z,2.04
2023-03-06T01:00:12.259Z,2.07
2023-03-06T01:03:13.792Z,2.11
2023-03-06T01:06:15.273Z,2.08
2023-03-06T01:09:16.839Z,2.12
2023-03-06T01:12:18.587Z,2.09
2023-03-06T01:15:20.603Z,2.14
2023-03-06T01:18:22.136Z,2.14
2023-03-06T01:21:23.765Z,2.14
2023-03-06T01:24:25.917Z,2.17
2023-03-06T01:27:31.232Z,2.19
2023-03-06T01:30:32.698Z,2.25
2023-03-06T01:33:36.196Z,2.19
2023-03-06T01:36:37.672Z,2.05
2023-03-06T01:39:39.441Z,2.03
2023-03-06T01:42:41.913Z,2.05
2023-03-06T01:45:49.409Z,1.95
2023-03-06T01:49:07.674Z,1.88
2023-03-06T01:52:15.458Z,1.96
2023-03-06T01:55:22.068Z,2.05
2023-03-06T01:58:23.896Z,2.09
2023-03-06T02:01:26.249Z,2.10
2023-03-06T02:04:29.119Z,2.06
2023-03-06T02:07:33.484Z,2.02
2023-03-06T02:10:35.153Z,2.05
2023-03-06T02:13:37.336Z,2.03
2023-03-06T02:16:39.323Z,2.05
2023-03-06T02:20:01.859Z,2.14
2023-03-06T02:23:16.940Z,2.18
2023-03-06T02:26:19.664Z,2.17
2023-03-06T02:29:25.014Z,2.16
2023-03-06T02:32:26.562Z,2.11
2023-03-06T02:35:31.354Z,2.06
2023-03-06T02:38:40.033Z,2.07
2023-03-06T02:41:41.967Z,2.01
2023-03-06T02:44:43.710Z,2.04
2023-03-06T02:47:45.212Z,2.09
2023-03-06T02:50:48.310Z,2.08
2023-03-06T02:53:50.068Z,2.13
2023-03-06T02:56:51.602Z,2.08
2023-03-06T02:59:53.158Z,1.98
2023-03-06T03:02:55.495Z,2.06
2023-03-06T03:05:57.087Z,2.05
2023-03-06T03:09:03.715Z,2.06
2023-03-06T03:12:06.576Z,2.07
2023-03-06T03:15:09.603Z,2.11
2023-03-06T03:18:11.960Z,2.05
2023-03-06T03:21:14.739Z,2.08
2023-03-06T03:24:16.700Z,2.04
2023-03-06T03:27:18.241Z,2.04
2023-03-06T03:30:20.085Z,2.04
2023-03-06T03:33:21.755Z,2.06
2023-03-06T03:36:23.313Z,2.03
2023-03-06T03:39:24.872Z,2.01
2023-03-06T03:42:26.608Z,1.98
2023-03-06T03:45:29.024Z,1.86
2023-03-06T03:48:31.057Z,1.83
2023-03-06T03:51:33.420Z,1.83
2023-03-06T03:54:36.573Z,1.84
2023-03-06T03:57:39.257Z,1.80
2023-03-06T04:00:41.950Z,1.82
2023-03-06T04:03:48.099Z,1.82
2023-03-06T04:06:51.487Z,1.77
2023-03-06T04:09:54.395Z,1.78
2023-03-06T04:12:56.026Z,1.88
2023-03-06T04:15:58.966Z,1.83
2023-03-06T04:19:01.857Z,1.80
2023-03-06T04:22:03.442Z,1.79
2023-03-06T04:25:07.495Z,1.80
2023-03-06T04:28:11.443Z,1.88
2023-03-06T04:31:13.401Z,1.93
2023-03-06T04:34:14.972Z,1.92
2023-03-06T04:37:24.208Z,1.95
2023-03-06T04:40:29.076Z,1.99
2023-03-06T04:43:30.886Z,2.02
2023-03-06T04:46:32.566Z,2.02
2023-03-06T04:49:34.103Z,2.04
2023-03-06T04:52:35.638Z,2.06
2023-03-06T04:55:37.073Z,2.06
2023-03-06T04:58:38.715Z,2.08
2023-03-06T05:01:40.188Z,2.08
2023-03-06T05:04:41.644Z,2.03
2023-03-06T05:07:43.856Z,1.99
2023-03-06T05:10:45.550Z,2.02
2023-03-06T05:13:47.259Z,1.97
2023-03-06T05:16:48.797Z,1.94
2023-03-06T05:19:50.342Z,1.97
2023-03-06T05:22:51.857Z,2.02
2023-03-06T05:25:53.436Z,1.93
2023-03-06T05:28:55.333Z,1.90
2023-03-06T05:31:56.871Z,1.93
2023-03-06T05:34:58.420Z,1.96
2023-03-06T05:37:59.975Z,1.91
2023-03-06T05:41:01.582Z,1.90
2023-03-06T05:44:03.145Z,1.90
2023-03-06T05:47:05.304Z,1.83
2023-03-06T05:50:08.279Z,1.86
2023-03-06T05:53:10.669Z,1.87
2023-03-06T05:56:12.171Z,1.90
2023-03-06T05:59:13.619Z,1.94
2023-03-06T06:02:15.545Z,2.02
2023-03-06T06:05:17.170Z,2.01
2023-03-06T06:08:18.971Z,2.02
2023-03-06T06:11:21.041Z,2.01
2023-03-06T06:14:22.611Z,1.97
2023-03-06T06:17:24.335Z,1.94
2023-03-06T06:20:25.838Z,2.00
2023-03-06T06:23:27.270Z,1.93
2023-03-06T06:26:28.823Z,1.93
2023-03-06T06:29:30.415Z,1.94
2023-03-06T06:32:32.233Z,2.01
2023-03-06T06:35:36.541Z,2.04
2023-03-06T06:38:38.038Z,2.02
2023-03-06T06:41:56.936Z,2.04
2023-03-06T06:45:01.784Z,2.06
2023-03-06T06:48:03.546Z,2.08
2023-03-06T06:51:05.561Z,2.04
2023-03-06T06:54:07.545Z,2.11
2023-03-06T06:57:11.206Z,2.08
2023-03-06T07:00:15.788Z,2.14
2023-03-06T07:03:17.898Z,2.19
2023-03-06T07:06:19.398Z,2.21
2023-03-06T07:09:22.231Z,2.23
2023-03-06T07:12:23.793Z,2.26
2023-03-06T07:15:27.094Z,2.33
2023-03-06T07:18:28.641Z,2.43
2023-03-06T07:21:30.168Z,2.50
2023-03-06T07:24:31.682Z,2.52
2023-03-06T07:27:33.324Z,2.53
2023-03-06T07:30:34.940Z,2.58
2023-03-06T07:33:36.394Z,2.67
2023-03-06T07:36:40.350Z,2.76
2023-03-06T07:39:42.218Z,2.70
2023-03-06T07:42:43.761Z,2.61
2023-03-06T07:45:55.758Z,2.60
2023-03-06T07:48:58.208Z,2.69
2023-03-06T07:52:01.176Z,2.71
2023-03-06T07:55:02.828Z,2.73
2023-03-06T07:58:04.251Z,2.63
2023-03-06T08:01:07.763Z,2.72
2023-03-06T08:04:09.468Z,2.82
2023-03-06T08:07:11.021Z,2.76
2023-03-06T08:10:14.266Z,2.70
2023-03-06T08:13:15.713Z,2.72
2023-03-06T08:16:20.601Z,2.79
2023-03-06T08:19:22.195Z,2.81
2023-03-06T08:22:23.848Z,2.87
2023-03-06T08:25:25.368Z,2.94
2023-03-06T08:28:27.234Z,2.93
2023-03-06T08:31:37.746Z,2.79
2023-03-06T08:34:41.041Z,2.75
2023-03-06T08:37:42.598Z,2.75
2023-03-06T08:40:44.136Z,2.80
2023-03-06T08:43:45.979Z,3.03
2023-03-06T08:46:47.491Z,3.20
2023-03-06T08:49:48.957Z,3.28
2023-03-06T08:52:50.472Z,3.57
2023-03-06T08:55:52.123Z,3.75
2023-03-06T08:58:54.175Z,4.11
2023-03-06T09:01:55.781Z,4.31
2023-03-06T09:04:57.337Z,4.20
2023-03-06T09:07:58.830Z,4.20
2023-03-06T09:11:00.416Z,4.29
2023-03-06T09:14:02.444Z,4.38
2023-03-06T09:17:04.010Z,4.47
2023-03-06T09:20:10.409Z,4.63
2023-03-06T09:23:12.055Z,4.75
2023-03-06T09:26:13.981Z,4.75
2023-03-06T09:29:17.083Z,4.61
2023-03-06T09:32:18.693Z,4.97
2023-03-06T09:35:20.236Z,5.15
2023-03-06T09:38:24.615Z,5.15
2023-03-06T09:41:31.235Z,5.39
2023-03-06T09:44:36.059Z,5.47
2023-03-06T09:47:43.608Z,5.32
2023-03-06T09:50:51.678Z,5.38
2023-03-06T09:54:03.088Z,5.66
2023-03-06T09:57:14.136Z,5.55
2023-03-06T10:00:20.430Z,5.79
2023-03-06T10:03:33.836Z,5.85
2023-03-06T10:06:50.327Z,5.98
2023-03-06T10:10:04.473Z,6.21
2023-03-06T10:13:36.470Z,6.44
2023-03-06T10:16:38.144Z,6.29
2023-03-06T10:19:40.106Z,6.32
2023-03-06T10:23:00.047Z,6.68
2023-03-06T10:26:13.146Z,6.84
2023-03-06T10:29:47.575Z,7.00
2023-03-06T10:33:29.054Z,7.05
2023-03-06T10:36:30.517Z,6.90
2023-03-06T10:39:32.110Z,6.82
2023-03-06T10:42:34.598Z,6.77
2023-03-06T10:45:49.164Z,6.53
2023-03-06T10:48:59.058Z,6.50
2023-03-06T10:52:05.604Z,6.67
2023-03-06T10:55:25.533Z,6.62
2023-03-06T10:58:30.183Z,6.55
2023-03-06T11:01:31.902Z,6.69
2023-03-06T11:04:35.532Z,6.66
2023-03-06T11:07:53.736Z,6.58
2023-03-06T11:11:18.570Z,6.82
2023-03-06T11:14:25.931Z,6.97
2023-03-06T11:17:30.837Z,6.93
2023-03-06T11:20:44.887Z,7.03
2023-03-06T11:23:51.975Z,7.13
2023-03-06T11:26:58.352Z,6.98
2023-03-06T11:30:03.395Z,7.06
2023-03-06T11:33:15.763Z,6.98
2023-03-06T11:36:30.132Z,6.93
2023-03-06T11:39:37.051Z,6.88
2023-03-06T11:43:04.673Z,7.17
2023-03-06T11:46:26.325Z,7.30
2023-03-06T11:49:33.100Z,7.45
2023-03-06T11:52:46.721Z,7.35
2023-03-06T11:55:59.242Z,7.51
2023-03-06T11:59:22.335Z,7.62
2023-03-06T12:02:36.080Z,7.66
2023-03-06T12:05:48.632Z,7.79
2023-03-06T12:09:01.666Z,7.64
2023-03-06T12:12:34.140Z,7.33
2023-03-06T12:15:47.399Z,7.55
2023-03-06T12:18:51.871Z,7.31
2023-03-06T12:22:09.729Z,7.38
2023-03-06T12:25:39.476Z,7.42
2023-03-06T12:28:51.310Z,7.06
2023-03-06T12:32:11.351Z,7.00
2023-03-06T12:35:19.088Z,6.99
2023-03-06T12:38:47.928Z,6.97
2023-03-06T12:42:23.561Z,6.96
2023-03-06T12:45:34.757Z,6.97
2023-03-06T12:48:39.193Z,7.30
2023-03-06T12:51:43.380Z,7.41
2023-03-06T12:54:45.088Z,7.32
2023-03-06T12:57:48.760Z,7.61
2023-03-06T13:01:15.126Z,7.92
2023-03-06T13:04:40.891Z,8.00
2023-03-06T13:07:53.122Z,7.41
2023-03-06T13:11:22.634Z,6.73
2023-03-06T13:14:42.311Z,6.63
2023-03-06T13:17:46.758Z,6.61
2023-03-06T13:20:50.167Z,6.55
2023-03-06T13:23:52.630Z,6.60
2023-03-06T13:26:59.979Z,6.62
2023-03-06T13:30:19.540Z,6.27
2023-03-06T13:33:25.678Z,6.02
2023-03-06T13:36:29.624Z,5.80
2023-03-06T13:39:57.270Z,5.84
2023-03-06T13:43:07.804Z,5.76
2023-03-06T13:46:25.811Z,5.78
2023-03-06T13:49:28.421Z,5.84
2023-03-06T13:52:45.127Z,5.64
2023-03-06T13:55:56.046Z,5.69
2023-03-06T13:59:15.602Z,5.77
2023-03-06T14:02:32.323Z,5.62
2023-03-06T14:05:54.183Z,5.61
2023-03-06T14:08:55.945Z,5.93
2023-03-06T14:12:15.451Z,5.90
2023-03-06T14:15:25.973Z,5.99
2023-03-06T14:18:47.714Z,6.07
2023-03-06T14:21:55.876Z,6.16
2023-03-06T14:25:02.807Z,6.12
2023-03-06T14:28:13.736Z,6.13
2023-03-06T14:31:21.181Z,6.15
2023-03-06T14:34:28.786Z,6.08
2023-03-06T14:37:32.023Z,6.06
2023-03-06T14:40:40.593Z,6.09
2023-03-06T14:43:42.150Z,5.98
2023-03-06T14:46:52.194Z,5.88
2023-03-06T14:50:24.755Z,5.74
2023-03-06T14:53:32.136Z,5.58
2023-03-06T14:56:39.853Z,5.48
2023-03-06T14:59:54.694Z,5.43
2023-03-06T15:02:57.736Z,5.49
2023-03-06T15:05:59.582Z,5.55
2023-03-06T15:09:07.180Z,5.51
2023-03-06T15:12:18.327Z,5.35
2023-03-06T15:15:29.430Z,5.34
2023-03-06T15:18:39.244Z,5.34
2023-03-06T15:21:40.829Z,5.39
2023-03-06T15:24:42.584Z,5.34
2023-03-06T15:27:55.536Z,5.37
2023-03-06T15:31:20.667Z,5.29
2023-03-06T15:34:23.597Z,5.36
2023-03-06T15:37:28.923Z,5.26
2023-03-06T15:40:31.870Z,5.23
2023-03-06T15:43:39.891Z,5.17
2023-03-06T15:46:42.987Z,5.06
2023-03-06T15:49:44.618Z,5.14
2023-03-06T15:52:47.314Z,5.16
2023-03-06T15:55:50.283Z,4.99
2023-03-06T15:58:51.787Z,4.84
2023-03-06T16:01:54.256Z,4.69
2023-03-06T16:04:56.183Z,4.70
2023-03-06T16:07:57.782Z,4.69
2023-03-06T16:10:59.439Z,4.67
2023-03-06T16:14:01.531Z,4.63
2023-03-06T16:17:03.043Z,4.62
2023-03-06T16:20:06.104Z,4.65
2023-03-06T16:23:10.558Z,4.55
2023-03-06T16:26:20.944Z,4.50
2023-03-06T16:29:24.448Z,4.47
2023-03-06T16:32:28.411Z,4.41
2023-03-06T16:35:30.612Z,4.31
2023-03-06T16:38:32.072Z,4.22
2023-03-06T16:41:33.607Z,4.12
2023-03-06T16:44:35.080Z,4.06
2023-03-06T16:47:36.951Z,3.98
2023-03-06T16:50:39.751Z,4.00
2023-03-06T16:53:41.355Z,3.94
2023-03-06T16:56:43.799Z,4.00
2023-03-06T16:59:45.582Z,4.02
2023-03-06T17:02:52.182Z,4.00
2023-03-06T17:05:53.664Z,4.01
2023-03-06T17:08:55.242Z,4.09
2023-03-06T17:11:56.856Z,4.09
2023-03-06T17:14:58.455Z,4.12
2023-03-06T17:18:00.108Z,4.11
2023-03-06T17:21:01.792Z,4.00
2023-03-06T17:24:03.721Z,3.98
2023-03-06T17:27:05.373Z,3.99
2023-03-06T17:30:07.348Z,4.07
2023-03-06T17:33:08.858Z,4.10
2023-03-06T17:36:11.242Z,4.10
2023-03-06T17:39:12.881Z,4.08
2023-03-06T17:42:14.592Z,4.03
2023-03-06T17:45:16.227Z,3.97
2023-03-06T17:48:17.714Z,3.93
2023-03-06T17:51:19.508Z,3.91
2023-03-06T17:54:21.241Z,3.96
2023-03-06T17:57:22.811Z,3.96
2023-03-06T18:00:24.389Z,3.92
2023-03-06T18:03:25.967Z,3.95
2023-03-06T18:06:30.139Z,3.91
2023-03-06T18:09:32.120Z,3.87
2023-03-06T18:12:33.757Z,3.89
2023-03-06T18:15:39.854Z,3.89
2023-03-06T18:18:41.520Z,3.90
2023-03-06T18:21:43.466Z,3.88
2023-03-06T18:24:45.122Z,3.80
2023-03-06T18:27:46.765Z,3.89
2023-03-06T18:30:48.213Z,3.94
2023-03-06T18:33:51.333Z,3.91
2023-03-06T18:36:53.047Z,3.88
2023-03-06T18:39:54.851Z,3.87
2023-03-06T18:42:56.370Z,3.86
2023-03-06T18:45:58.159Z,3.83
2023-03-06T18:49:00.699Z,3.81
2023-03-06T18:52:02.199Z,3.84
2023-03-06T18:55:04.018Z,3.82
2023-03-06T18:58:05.508Z,3.76
2023-03-06T19:01:07.709Z,3.76
2023-03-06T19:04:09.384Z,3.74
2023-03-06T19:07:12.772Z,3.80
2023-03-06T19:10:14.331Z,3.80
2023-03-06T19:13:15.945Z,3.80
2023-03-06T19:16:20.096Z,3.78
2023-03-06T19:19:26.138Z,3.76
2023-03-06T19:22:27.604Z,3.73
2023-03-06T19:25:29.069Z,3.74
2023-03-06T19:28:30.662Z,3.75
2023-03-06T19:31:32.276Z,3.78
2023-03-06T19:34:33.843Z,3.76
2023-03-06T19:37:36.390Z,3.73
2023-03-06T19:40:38.196Z,3.73
2023-03-06T19:43:41.474Z,3.72
2023-03-06T19:46:43.502Z,3.71
2023-03-06T19:49:44.966Z,3.70
2023-03-06T19:52:46.520Z,3.66
2023-03-06T19:55:47.994Z,3.75
2023-03-06T19:58:49.483Z,3.72
2023-03-06T20:01:50.938Z,3.65
2023-03-06T20:04:54.036Z,3.60
2023-03-06T20:07:55.548Z,3.60
2023-03-06T20:10:57.023Z,3.50
2023-03-06T20:14:00.488Z,3.44
2023-03-06T20:17:02.402Z,3.50
2023-03-06T20:20:04.518Z,3.43
2023-03-06T20:23:06.231Z,3.50
2023-03-06T20:26:11.746Z,3.50
2023-03-06T20:29:14.862Z,3.50
2023-03-06T20:32:16.315Z,3.52
2023-03-06T20:35:17.970Z,3.55
2023-03-06T20:38:19.434Z,3.55
2023-03-06T20:41:23.716Z,3.51
2023-03-06T20:44:25.235Z,3.51
2023-03-06T20:47:27.204Z,3.47
2023-03-06T20:50:28.807Z,3.48
2023-03-06T20:53:30.833Z,3.47
2023-03-06T20:56:33.779Z,3.39
2023-03-06T20:59:35.237Z,3.49
2023-03-06T21:02:36.795Z,3.52
2023-03-06T21:05:38.234Z,3.57
2023-03-06T21:08:39.653Z,3.53
2023-03-06T21:11:41.402Z,3.53
2023-03-06T21:14:42.860Z,3.52
2023-03-06T21:17:44.428Z,3.50
2023-03-06T21:20:45.926Z,3.51
2023-03-06T21:23:48.495Z,3.54
2023-03-06T21:26:53.821Z,3.52
2023-03-06T21:29:55.414Z,3.55
2023-03-06T21:32:56.950Z,3.61
2023-03-06T21:35:58.450Z,3.59
2023-03-06T21:38:59.985Z,3.53
2023-03-06T21:42:01.521Z,3.53
2023-03-06T21:45:07.861Z,3.57
2023-03-06T21:48:09.679Z,3.58
2023-03-06T21:51:15.921Z,3.53
2023-03-06T21:54:17.502Z,3.52
2023-03-06T21:57:19.179Z,3.51
2023-03-06T22:00:23.155Z,3.51
2023-03-06T22:03:24.909Z,3.51
2023-03-06T22:06:28.514Z,3.51
2023-03-06T22:09:29.982Z,3.51
2023-03-06T22:12:34.003Z,3.50
2023-03-06T22:15:35.436Z,3.42
2023-03-06T22:18:37.482Z,3.41
2023-03-06T22:21:38.937Z,3.46
2023-03-06T22:24:40.452Z,3.35
2023-03-06T22:27:41.974Z,3.40
2023-03-06T22:30:43.419Z,3.38
2023-03-06T22:33:44.938Z,3.31
2023-03-06T22:36:46.394Z,3.25
2023-03-06T22:39:48.097Z,3.24
2023-03-06T22:42:49.663Z,3.20
2023-03-06T22:45:52.624Z,3.17
2023-03-06T22:48:58.358Z,3.12
2023-03-06T22:52:00.030Z,3.12
2023-03-06T22:55:01.806Z,3.08
2023-03-06T22:58:03.318Z,3.09
2023-03-06T23:01:11.483Z,3.07
2023-03-06T23:04:13.072Z,2.98
2023-03-06T23:07:14.486Z,2.95
2023-03-06T23:10:16.061Z,2.93
2023-03-06T23:13:36.763Z,2.91
2023-03-06T23:16:56.715Z,2.92
2023-03-06T23:20:17.011Z,2.88
2023-03-06T23:23:37.634Z,2.93
2023-03-06T23:26:40.662Z,2.86
2023-03-06T23:29:42.173Z,2.88
2023-03-06T23:32:45.845Z,2.95
2023-03-06T23:35:47.612Z,2.92
2023-03-06T23:38:49.219Z,2.94
2023-03-06T23:41:50.735Z,2.95
2023-03-06T23:44:52.514Z,2.93
2023-03-06T23:47:54.100Z,2.92
2023-03-06T23:50:56.421Z,2.89
2023-03-06T23:53:59.782Z,2.93
2023-03-06T23:57:01.278Z,2.99
